sensor_id;sensor_type;location;lat;lon;timestamp;temperature;humidity
21895;DHT22;11112;51.270;7.224;2022-12-08T00:01:45;7.00;99.70
21895;DHT22;11112;51.270;7.224;2022-12-08T00:04:12;7.00;99.70
21895;DHT22;11112;51.270;7.224;2022-12-08T00:06:41;7.00;99.80
21895;DHT22;11112;51.270;7.224;2022-12-08T00:09:31;7.00;99.80
21895;DHT22;11112;51.270;7.224;2022-12-08T00:12:01;7.00;99.80
21895;DHT22;11112;51.270;7.224;2022-12-08T00:14:32;7.00;99.80
21895;DHT22;11112;51.270;7.224;2022-12-08T00:17:01;7.00;99.80
21895;DHT22;11112;51.270;7.224;2022-12-08T00:19:29;7.00;99.80
21895;DHT22;11112;51.270;7.224;2022-12-08T00:21:57;7.00;99.80
21895;DHT22;11112;51.270;7.224;2022-12-08T00:24:32;7.00;99.80
21895;DHT22;11112;51.270;7.224;2022-12-08T00:27:00;7.00;99.80
21895;DHT22;11112;51.270;7.224;2022-12-08T00:29:29;7.00;99.80
21895;DHT22;11112;51.270;7.224;2022-12-08T00:31:56;7.00;99.70
21895;DHT22;11112;51.270;7.224;2022-12-08T00:34:23;7.00;99.80
21895;DHT22;11112;51.270;7.224;2022-12-08T00:36:51;7.00;99.70
21895;DHT22;11112;51.270;7.224;2022-12-08T00:39:21;7.00;99.80
21895;DHT22;11112;51.270;7.224;2022-12-08T00:41:49;7.00;99.70
21895;DHT22;11112;51.270;7.224;2022-12-08T00:44:34;6.90;99.80
21895;DHT22;11112;51.270;7.224;2022-12-08T00:47:02;6.90;99.70
21895;DHT22;11112;51.270;7.224;2022-12-08T00:49:29;7.00;99.80
21895;DHT22;11112;51.270;7.224;2022-12-08T00:52:05;7.00;99.70
21895;DHT22;11112;51.270;7.224;2022-12-08T00:54:33;6.90;99.70
21895;DHT22;11112;51.270;7.224;2022-12-08T00:57:02;7.00;99.70
21895;DHT22;11112;51.270;7.224;2022-12-08T00:59:30;6.90;99.60
21895;DHT22;11112;51.270;7.224;2022-12-08T01:01:57;6.90;99.60
21895;DHT22;11112;51.270;7.224;2022-12-08T01:04:26;6.90;99.60
21895;DHT22;11112;51.270;7.224;2022-12-08T01:06:53;6.90;99.60
21895;DHT22;11112;51.270;7.224;2022-12-08T01:09:20;6.90;99.50
21895;DHT22;11112;51.270;7.224;2022-12-08T01:11:48;6.90;99.60
21895;DHT22;11112;51.270;7.224;2022-12-08T01:14:19;6.90;99.70
21895;DHT22;11112;51.270;7.224;2022-12-08T01:16:46;6.90;99.60
21895;DHT22;11112;51.270;7.224;2022-12-08T01:19:15;6.90;99.60
21895;DHT22;11112;51.270;7.224;2022-12-08T01:21:44;6.90;99.60
21895;DHT22;11112;51.270;7.224;2022-12-08T01:24:13;7.00;99.60
21895;DHT22;11112;51.270;7.224;2022-12-08T01:26:42;6.90;99.50
21895;DHT22;11112;51.270;7.224;2022-12-08T01:29:11;6.90;99.60
21895;DHT22;11112;51.270;7.224;2022-12-08T01:31:40;6.90;99.50
21895;DHT22;11112;51.270;7.224;2022-12-08T01:34:09;6.90;99.60
21895;DHT22;11112;51.270;7.224;2022-12-08T01:36:37;6.90;99.70
21895;DHT22;11112;51.270;7.224;2022-12-08T01:39:07;6.90;99.60
21895;DHT22;11112;51.270;7.224;2022-12-08T01:41:38;6.90;99.70
21895;DHT22;11112;51.270;7.224;2022-12-08T01:47:26;6.80;99.60
21895;DHT22;11112;51.270;7.224;2022-12-08T01:49:59;6.90;99.70
21895;DHT22;11112;51.270;7.224;2022-12-08T01:52:32;6.90;99.70
21895;DHT22;11112;51.270;7.224;2022-12-08T01:55:04;6.90;99.60
21895;DHT22;11112;51.270;7.224;2022-12-08T01:57:38;6.90;99.60
21895;DHT22;11112;51.270;7.224;2022-12-08T02:00:10;6.90;99.70
21895;DHT22;11112;51.270;7.224;2022-12-08T02:02:48;6.90;99.60
21895;DHT22;11112;51.270;7.224;2022-12-08T02:05:20;6.90;99.60
21895;DHT22;11112;51.270;7.224;2022-12-08T02:07:52;7.00;99.60
21895;DHT22;11112;51.270;7.224;2022-12-08T02:10:22;6.90;99.60
21895;DHT22;11112;51.270;7.224;2022-12-08T02:12:51;6.90;99.50
21895;DHT22;11112;51.270;7.224;2022-12-08T02:15:28;6.90;99.60
21895;DHT22;11112;51.270;7.224;2022-12-08T02:18:12;6.90;99.60
21895;DHT22;11112;51.270;7.224;2022-12-08T02:20:55;6.90;99.70
21895;DHT22;11112;51.270;7.224;2022-12-08T02:23:35;6.90;99.70
21895;DHT22;11112;51.270;7.224;2022-12-08T02:26:34;6.90;99.60
21895;DHT22;11112;51.270;7.224;2022-12-08T02:32:49;6.90;99.90
21895;DHT22;11112;51.270;7.224;2022-12-08T02:35:34;6.80;99.80
21895;DHT22;11112;51.270;7.224;2022-12-08T02:38:10;6.80;99.80
21895;DHT22;11112;51.270;7.224;2022-12-08T02:40:47;6.80;99.80
21895;DHT22;11112;51.270;7.224;2022-12-08T02:43:23;6.90;99.90
21895;DHT22;11112;51.270;7.224;2022-12-08T02:45:55;6.90;99.90
21895;DHT22;11112;51.270;7.224;2022-12-08T02:48:27;6.90;99.90
21895;DHT22;11112;51.270;7.224;2022-12-08T02:50:56;6.90;99.90
21895;DHT22;11112;51.270;7.224;2022-12-08T02:53:40;6.90;99.90
21895;DHT22;11112;51.270;7.224;2022-12-08T02:56:16;6.90;99.80
21895;DHT22;11112;51.270;7.224;2022-12-08T02:59:14;6.90;99.80
21895;DHT22;11112;51.270;7.224;2022-12-08T03:02:20;6.90;99.80
21895;DHT22;11112;51.270;7.224;2022-12-08T03:05:04;6.90;99.90
21895;DHT22;11112;51.270;7.224;2022-12-08T03:07:41;6.90;99.80
21895;DHT22;11112;51.270;7.224;2022-12-08T03:10:18;6.80;99.80
21895;DHT22;11112;51.270;7.224;2022-12-08T03:12:52;6.90;99.80
21895;DHT22;11112;51.270;7.224;2022-12-08T03:15:22;6.90;99.90
21895;DHT22;11112;51.270;7.224;2022-12-08T03:17:56;6.90;99.90
21895;DHT22;11112;51.270;7.224;2022-12-08T03:20:27;6.90;99.90
21895;DHT22;11112;51.270;7.224;2022-12-08T03:22:59;6.90;99.90
21895;DHT22;11112;51.270;7.224;2022-12-08T03:25:31;6.90;99.90
21895;DHT22;11112;51.270;7.224;2022-12-08T03:28:01;6.80;99.80
21895;DHT22;11112;51.270;7.224;2022-12-08T03:30:31;6.80;99.90
21895;DHT22;11112;51.270;7.224;2022-12-08T03:33:03;6.80;99.80
21895;DHT22;11112;51.270;7.224;2022-12-08T03:35:35;6.80;99.90
21895;DHT22;11112;51.270;7.224;2022-12-08T03:38:09;6.80;99.90
21895;DHT22;11112;51.270;7.224;2022-12-08T03:40:38;6.80;99.70
21895;DHT22;11112;51.270;7.224;2022-12-08T03:43:06;6.80;99.80
21895;DHT22;11112;51.270;7.224;2022-12-08T03:45:34;6.80;99.80
21895;DHT22;11112;51.270;7.224;2022-12-08T03:48:01;6.80;99.70
21895;DHT22;11112;51.270;7.224;2022-12-08T03:50:29;6.80;99.60
21895;DHT22;11112;51.270;7.224;2022-12-08T03:52:56;6.90;99.60
21895;DHT22;11112;51.270;7.224;2022-12-08T03:55:25;6.80;99.60
21895;DHT22;11112;51.270;7.224;2022-12-08T03:57:52;6.90;99.60
21895;DHT22;11112;51.270;7.224;2022-12-08T04:00:21;6.80;99.40
21895;DHT22;11112;51.270;7.224;2022-12-08T04:02:48;6.80;99.60
21895;DHT22;11112;51.270;7.224;2022-12-08T04:05:16;6.80;99.70
21895;DHT22;11112;51.270;7.224;2022-12-08T04:07:43;6.80;99.80
21895;DHT22;11112;51.270;7.224;2022-12-08T04:10:10;6.90;99.80
21895;DHT22;11112;51.270;7.224;2022-12-08T04:12:39;6.80;99.80
21895;DHT22;11112;51.270;7.224;2022-12-08T04:15:07;6.80;99.70
21895;DHT22;11112;51.270;7.224;2022-12-08T04:17:36;6.90;99.80
21895;DHT22;11112;51.270;7.224;2022-12-08T04:20:04;6.90;99.80
21895;DHT22;11112;51.270;7.224;2022-12-08T04:22:33;6.90;99.80
21895;DHT22;11112;51.270;7.224;2022-12-08T04:25:00;6.80;99.80
21895;DHT22;11112;51.270;7.224;2022-12-08T04:27:27;6.80;99.80
21895;DHT22;11112;51.270;7.224;2022-12-08T04:29:56;6.80;99.70
21895;DHT22;11112;51.270;7.224;2022-12-08T04:32:24;6.80;99.70
21895;DHT22;11112;51.270;7.224;2022-12-08T04:34:51;6.90;99.60
21895;DHT22;11112;51.270;7.224;2022-12-08T04:37:18;6.90;99.70
21895;DHT22;11112;51.270;7.224;2022-12-08T04:39:45;6.80;99.70
21895;DHT22;11112;51.270;7.224;2022-12-08T04:42:13;6.80;99.70
21895;DHT22;11112;51.270;7.224;2022-12-08T04:44:40;6.80;99.80
21895;DHT22;11112;51.270;7.224;2022-12-08T04:47:10;6.80;99.80
21895;DHT22;11112;51.270;7.224;2022-12-08T04:49:37;6.80;99.80
21895;DHT22;11112;51.270;7.224;2022-12-08T04:52:04;6.80;99.70
21895;DHT22;11112;51.270;7.224;2022-12-08T04:54:32;6.80;99.80
21895;DHT22;11112;51.270;7.224;2022-12-08T04:56:59;6.80;99.90
21895;DHT22;11112;51.270;7.224;2022-12-08T04:59:26;6.80;99.80
21895;DHT22;11112;51.270;7.224;2022-12-08T05:01:53;6.80;99.90
21895;DHT22;11112;51.270;7.224;2022-12-08T05:04:22;6.80;99.80
21895;DHT22;11112;51.270;7.224;2022-12-08T05:06:50;6.80;99.80
21895;DHT22;11112;51.270;7.224;2022-12-08T05:09:17;6.80;99.80
21895;DHT22;11112;51.270;7.224;2022-12-08T05:11:44;6.80;99.90
21895;DHT22;11112;51.270;7.224;2022-12-08T05:14:14;6.80;99.90
21895;DHT22;11112;51.270;7.224;2022-12-08T05:16:43;6.80;99.90
21895;DHT22;11112;51.270;7.224;2022-12-08T05:19:10;6.80;99.90
21895;DHT22;11112;51.270;7.224;2022-12-08T05:21:40;6.80;99.90
21895;DHT22;11112;51.270;7.224;2022-12-08T05:24:07;6.80;99.90
21895;DHT22;11112;51.270;7.224;2022-12-08T05:26:34;6.80;99.70
21895;DHT22;11112;51.270;7.224;2022-12-08T05:29:02;6.80;99.80
21895;DHT22;11112;51.270;7.224;2022-12-08T05:31:32;6.80;99.90
21895;DHT22;11112;51.270;7.224;2022-12-08T05:33:59;6.80;99.90
21895;DHT22;11112;51.270;7.224;2022-12-08T05:36:27;6.80;99.90
21895;DHT22;11112;51.270;7.224;2022-12-08T05:38:57;6.80;99.90
21895;DHT22;11112;51.270;7.224;2022-12-08T05:41:24;6.80;99.90
21895;DHT22;11112;51.270;7.224;2022-12-08T05:43:52;6.80;99.90
21895;DHT22;11112;51.270;7.224;2022-12-08T05:46:19;6.80;99.90
21895;DHT22;11112;51.270;7.224;2022-12-08T05:48:47;6.80;99.90
21895;DHT22;11112;51.270;7.224;2022-12-08T05:51:17;6.80;99.90
21895;DHT22;11112;51.270;7.224;2022-12-08T05:53:46;6.80;99.90
21895;DHT22;11112;51.270;7.224;2022-12-08T05:56:15;6.70;99.90
21895;DHT22;11112;51.270;7.224;2022-12-08T05:58:43;6.80;99.80
21895;DHT22;11112;51.270;7.224;2022-12-08T06:01:18;6.70;99.80
21895;DHT22;11112;51.270;7.224;2022-12-08T06:03:47;6.70;99.90
21895;DHT22;11112;51.270;7.224;2022-12-08T06:06:15;6.70;99.90
21895;DHT22;11112;51.270;7.224;2022-12-08T06:08:42;6.70;99.90
21895;DHT22;11112;51.270;7.224;2022-12-08T06:11:19;6.70;99.90
21895;DHT22;11112;51.270;7.224;2022-12-08T06:13:48;6.70;99.90
21895;DHT22;11112;51.270;7.224;2022-12-08T06:16:17;6.70;99.90
21895;DHT22;11112;51.270;7.224;2022-12-08T06:18:45;6.70;99.90
21895;DHT22;11112;51.270;7.224;2022-12-08T06:21:15;6.70;99.90
21895;DHT22;11112;51.270;7.224;2022-12-08T06:23:46;6.70;99.90
21895;DHT22;11112;51.270;7.224;2022-12-08T06:26:17;6.70;99.90
21895;DHT22;11112;51.270;7.224;2022-12-08T06:28:45;6.70;99.90
21895;DHT22;11112;51.270;7.224;2022-12-08T06:31:15;6.70;99.90
21895;DHT22;11112;51.270;7.224;2022-12-08T06:33:46;6.70;99.90
21895;DHT22;11112;51.270;7.224;2022-12-08T06:36:18;6.80;99.90
21895;DHT22;11112;51.270;7.224;2022-12-08T06:38:47;6.70;99.90
21895;DHT22;11112;51.270;7.224;2022-12-08T06:41:17;6.80;99.90
21895;DHT22;11112;51.270;7.224;2022-12-08T06:43:45;6.70;99.90
21895;DHT22;11112;51.270;7.224;2022-12-08T06:46:14;6.70;99.90
21895;DHT22;11112;51.270;7.224;2022-12-08T06:48:43;6.70;99.90
21895;DHT22;11112;51.270;7.224;2022-12-08T06:51:12;6.70;99.90
21895;DHT22;11112;51.270;7.224;2022-12-08T06:53:41;6.70;99.90
21895;DHT22;11112;51.270;7.224;2022-12-08T06:56:10;6.70;99.90
21895;DHT22;11112;51.270;7.224;2022-12-08T06:58:46;6.70;99.90
21895;DHT22;11112;51.270;7.224;2022-12-08T07:01:14;6.80;99.90
21895;DHT22;11112;51.270;7.224;2022-12-08T07:03:42;6.70;99.90
21895;DHT22;11112;51.270;7.224;2022-12-08T07:06:14;6.80;99.90
21895;DHT22;11112;51.270;7.224;2022-12-08T07:08:43;6.70;99.90
21895;DHT22;11112;51.270;7.224;2022-12-08T07:11:11;6.70;99.90
21895;DHT22;11112;51.270;7.224;2022-12-08T07:13:39;6.70;99.90
21895;DHT22;11112;51.270;7.224;2022-12-08T07:16:09;6.70;99.90
21895;DHT22;11112;51.270;7.224;2022-12-08T07:18:38;6.70;99.90
21895;DHT22;11112;51.270;7.224;2022-12-08T07:21:08;6.70;99.90
21895;DHT22;11112;51.270;7.224;2022-12-08T07:23:38;6.80;99.90
21895;DHT22;11112;51.270;7.224;2022-12-08T07:26:08;6.80;99.90
21895;DHT22;11112;51.270;7.224;2022-12-08T07:28:38;6.70;99.90
21895;DHT22;11112;51.270;7.224;2022-12-08T07:31:16;6.70;99.90
21895;DHT22;11112;51.270;7.224;2022-12-08T07:33:45;6.70;99.90
21895;DHT22;11112;51.270;7.224;2022-12-08T07:36:13;6.70;99.90
21895;DHT22;11112;51.270;7.224;2022-12-08T07:38:40;6.70;99.90
21895;DHT22;11112;51.270;7.224;2022-12-08T07:41:11;6.60;99.90
21895;DHT22;11112;51.270;7.224;2022-12-08T07:43:39;6.70;99.90
21895;DHT22;11112;51.270;7.224;2022-12-08T07:46:10;6.70;99.90
21895;DHT22;11112;51.270;7.224;2022-12-08T07:48:38;6.70;99.90
21895;DHT22;11112;51.270;7.224;2022-12-08T07:51:06;6.70;99.90
21895;DHT22;11112;51.270;7.224;2022-12-08T07:53:34;6.70;99.90
21895;DHT22;11112;51.270;7.224;2022-12-08T07:56:04;6.70;99.90
21895;DHT22;11112;51.270;7.224;2022-12-08T07:58:32;6.70;99.90
21895;DHT22;11112;51.270;7.224;2022-12-08T08:01:00;6.60;99.90
21895;DHT22;11112;51.270;7.224;2022-12-08T08:03:29;6.70;99.90
21895;DHT22;11112;51.270;7.224;2022-12-08T08:06:03;6.70;99.90
21895;DHT22;11112;51.270;7.224;2022-12-08T08:08:30;6.70;99.90
21895;DHT22;11112;51.270;7.224;2022-12-08T08:10:58;6.70;99.90
21895;DHT22;11112;51.270;7.224;2022-12-08T08:13:25;6.70;99.90
21895;DHT22;11112;51.270;7.224;2022-12-08T08:15:53;6.70;99.90
21895;DHT22;11112;51.270;7.224;2022-12-08T08:18:20;6.70;99.90
21895;DHT22;11112;51.270;7.224;2022-12-08T08:20:50;6.70;99.90
21895;DHT22;11112;51.270;7.224;2022-12-08T08:23:18;6.60;99.90
21895;DHT22;11112;51.270;7.224;2022-12-08T08:25:48;6.70;99.90
21895;DHT22;11112;51.270;7.224;2022-12-08T08:28:16;6.70;99.90
21895;DHT22;11112;51.270;7.224;2022-12-08T08:30:44;6.70;99.90
21895;DHT22;11112;51.270;7.224;2022-12-08T08:33:13;6.60;99.90
21895;DHT22;11112;51.270;7.224;2022-12-08T08:35:41;6.60;99.70
21895;DHT22;11112;51.270;7.224;2022-12-08T08:38:10;6.60;99.80
21895;DHT22;11112;51.270;7.224;2022-12-08T08:40:37;6.60;99.80
21895;DHT22;11112;51.270;7.224;2022-12-08T08:43:05;6.60;99.80
21895;DHT22;11112;51.270;7.224;2022-12-08T08:45:34;6.60;99.80
21895;DHT22;11112;51.270;7.224;2022-12-08T08:48:01;6.60;99.80
21895;DHT22;11112;51.270;7.224;2022-12-08T08:50:29;6.50;99.80
21895;DHT22;11112;51.270;7.224;2022-12-08T08:52:57;6.50;99.90
21895;DHT22;11112;51.270;7.224;2022-12-08T08:55:25;6.60;99.90
21895;DHT22;11112;51.270;7.224;2022-12-08T08:57:53;6.60;99.90
21895;DHT22;11112;51.270;7.224;2022-12-08T09:00:21;6.60;99.60
21895;DHT22;11112;51.270;7.224;2022-12-08T09:02:48;6.60;99.70
21895;DHT22;11112;51.270;7.224;2022-12-08T09:05:17;6.50;99.60
21895;DHT22;11112;51.270;7.224;2022-12-08T09:07:45;6.50;99.60
21895;DHT22;11112;51.270;7.224;2022-12-08T09:10:13;6.60;99.60
21895;DHT22;11112;51.270;7.224;2022-12-08T09:12:42;6.60;99.60
21895;DHT22;11112;51.270;7.224;2022-12-08T09:15:10;6.60;99.50
21895;DHT22;11112;51.270;7.224;2022-12-08T09:17:39;6.60;99.50
21895;DHT22;11112;51.270;7.224;2022-12-08T09:20:08;6.60;99.40
21895;DHT22;11112;51.270;7.224;2022-12-08T09:22:36;6.60;99.60
21895;DHT22;11112;51.270;7.224;2022-12-08T09:25:05;6.60;99.60
21895;DHT22;11112;51.270;7.224;2022-12-08T09:27:32;6.60;99.40
21895;DHT22;11112;51.270;7.224;2022-12-08T09:30:09;6.60;99.50
21895;DHT22;11112;51.270;7.224;2022-12-08T09:32:37;6.70;99.50
21895;DHT22;11112;51.270;7.224;2022-12-08T09:35:05;6.70;99.40
21895;DHT22;11112;51.270;7.224;2022-12-08T09:37:33;6.70;99.30
21895;DHT22;11112;51.270;7.224;2022-12-08T09:40:02;6.60;99.10
21895;DHT22;11112;51.270;7.224;2022-12-08T09:42:37;6.60;99.00
21895;DHT22;11112;51.270;7.224;2022-12-08T09:45:11;6.60;98.80
21895;DHT22;11112;51.270;7.224;2022-12-08T09:47:43;6.60;99.00
21895;DHT22;11112;51.270;7.224;2022-12-08T09:50:17;6.60;99.10
21895;DHT22;11112;51.270;7.224;2022-12-08T09:52:59;6.60;99.10
21895;DHT22;11112;51.270;7.224;2022-12-08T09:55:39;6.60;99.10
21895;DHT22;11112;51.270;7.224;2022-12-08T09:58:16;6.60;99.00
21895;DHT22;11112;51.270;7.224;2022-12-08T10:00:47;6.60;99.00
21895;DHT22;11112;51.270;7.224;2022-12-08T10:03:15;6.60;98.90
21895;DHT22;11112;51.270;7.224;2022-12-08T10:05:48;6.60;99.10
21895;DHT22;11112;51.270;7.224;2022-12-08T10:08:27;6.60;99.20
21895;DHT22;11112;51.270;7.224;2022-12-08T10:10:58;6.60;99.30
21895;DHT22;11112;51.270;7.224;2022-12-08T10:13:36;6.60;99.20
21895;DHT22;11112;51.270;7.224;2022-12-08T10:16:14;6.70;99.30
21895;DHT22;11112;51.270;7.224;2022-12-08T10:18:51;6.70;99.30
21895;DHT22;11112;51.270;7.224;2022-12-08T10:21:26;6.70;99.30
21895;DHT22;11112;51.270;7.224;2022-12-08T10:24:01;6.70;99.50
21895;DHT22;11112;51.270;7.224;2022-12-08T10:26:31;6.70;99.30
21895;DHT22;11112;51.270;7.224;2022-12-08T10:29:01;6.70;99.40
21895;DHT22;11112;51.270;7.224;2022-12-08T10:31:30;6.60;99.30
21895;DHT22;11112;51.270;7.224;2022-12-08T10:33:59;6.60;99.60
21895;DHT22;11112;51.270;7.224;2022-12-08T10:36:46;6.60;99.70
21895;DHT22;11112;51.270;7.224;2022-12-08T10:39:33;6.60;99.60
21895;DHT22;11112;51.270;7.224;2022-12-08T10:42:07;6.60;99.60
21895;DHT22;11112;51.270;7.224;2022-12-08T10:44:51;6.60;99.90
21895;DHT22;11112;51.270;7.224;2022-12-08T10:47:24;6.60;99.50
21895;DHT22;11112;51.270;7.224;2022-12-08T10:50:14;6.60;99.40
21895;DHT22;11112;51.270;7.224;2022-12-08T10:52:45;6.60;99.50
21895;DHT22;11112;51.270;7.224;2022-12-08T10:55:21;6.60;99.40
21895;DHT22;11112;51.270;7.224;2022-12-08T10:57:51;6.60;99.60
21895;DHT22;11112;51.270;7.224;2022-12-08T11:00:24;6.50;99.60
21895;DHT22;11112;51.270;7.224;2022-12-08T11:02:57;6.60;99.60
21895;DHT22;11112;51.270;7.224;2022-12-08T11:05:29;6.60;99.70
21895;DHT22;11112;51.270;7.224;2022-12-08T11:07:59;6.50;99.50
21895;DHT22;11112;51.270;7.224;2022-12-08T11:10:34;6.50;99.50
21895;DHT22;11112;51.270;7.224;2022-12-08T11:13:04;6.50;99.60
21895;DHT22;11112;51.270;7.224;2022-12-08T11:15:34;6.50;99.70
21895;DHT22;11112;51.270;7.224;2022-12-08T11:18:21;6.60;99.60
21895;DHT22;11112;51.270;7.224;2022-12-08T11:20:59;6.50;99.70
21895;DHT22;11112;51.270;7.224;2022-12-08T11:23:34;6.60;99.70
21895;DHT22;11112;51.270;7.224;2022-12-08T11:26:06;6.50;99.80
21895;DHT22;11112;51.270;7.224;2022-12-08T11:28:39;6.60;99.70
21895;DHT22;11112;51.270;7.224;2022-12-08T11:31:21;6.60;99.80
21895;DHT22;11112;51.270;7.224;2022-12-08T11:33:56;6.60;99.70
21895;DHT22;11112;51.270;7.224;2022-12-08T11:36:25;6.60;99.80
21895;DHT22;11112;51.270;7.224;2022-12-08T11:38:56;6.60;99.80
21895;DHT22;11112;51.270;7.224;2022-12-08T11:41:29;6.60;99.90
21895;DHT22;11112;51.270;7.224;2022-12-08T11:44:03;6.60;99.90
21895;DHT22;11112;51.270;7.224;2022-12-08T11:46:39;6.70;99.90
21895;DHT22;11112;51.270;7.224;2022-12-08T11:49:12;6.70;99.90
21895;DHT22;11112;51.270;7.224;2022-12-08T11:51:49;6.70;99.90
21895;DHT22;11112;51.270;7.224;2022-12-08T11:54:23;6.70;99.90
21895;DHT22;11112;51.270;7.224;2022-12-08T11:56:54;6.70;99.90
21895;DHT22;11112;51.270;7.224;2022-12-08T11:59:27;6.80;99.90
21895;DHT22;11112;51.270;7.224;2022-12-08T12:01:56;6.70;99.90
21895;DHT22;11112;51.270;7.224;2022-12-08T12:04:31;6.80;99.90
21895;DHT22;11112;51.270;7.224;2022-12-08T12:07:34;6.80;99.90
21895;DHT22;11112;51.270;7.224;2022-12-08T12:10:26;6.70;99.80
21895;DHT22;11112;51.270;7.224;2022-12-08T12:13:26;6.80;99.90
21895;DHT22;11112;51.270;7.224;2022-12-08T12:16:30;6.70;99.80
21895;DHT22;11112;51.270;7.224;2022-12-08T12:19:07;6.70;99.40
21895;DHT22;11112;51.270;7.224;2022-12-08T12:21:44;6.70;99.60
21895;DHT22;11112;51.270;7.224;2022-12-08T12:24:17;6.70;99.90
21895;DHT22;11112;51.270;7.224;2022-12-08T12:26:54;6.70;99.60
21895;DHT22;11112;51.270;7.224;2022-12-08T12:29:24;6.70;99.80
21895;DHT22;11112;51.270;7.224;2022-12-08T12:31:55;6.70;99.90
21895;DHT22;11112;51.270;7.224;2022-12-08T12:34:26;6.70;99.90
21895;DHT22;11112;51.270;7.224;2022-12-08T12:37:02;6.70;99.80
21895;DHT22;11112;51.270;7.224;2022-12-08T12:39:43;6.70;99.90
21895;DHT22;11112;51.270;7.224;2022-12-08T12:42:34;6.70;99.50
21895;DHT22;11112;51.270;7.224;2022-12-08T12:45:24;6.60;99.50
21895;DHT22;11112;51.270;7.224;2022-12-08T12:48:13;6.60;99.60
21895;DHT22;11112;51.270;7.224;2022-12-08T12:50:48;6.60;99.50
21895;DHT22;11112;51.270;7.224;2022-12-08T12:53:49;6.60;99.50
21895;DHT22;11112;51.270;7.224;2022-12-08T12:56:46;6.70;99.40
21895;DHT22;11112;51.270;7.224;2022-12-08T12:59:31;6.60;99.50
21895;DHT22;11112;51.270;7.224;2022-12-08T13:02:18;6.70;99.30
21895;DHT22;11112;51.270;7.224;2022-12-08T13:05:01;6.70;99.40
21895;DHT22;11112;51.270;7.224;2022-12-08T13:07:35;6.70;99.40
21895;DHT22;11112;51.270;7.224;2022-12-08T13:10:19;6.70;99.30
21895;DHT22;11112;51.270;7.224;2022-12-08T13:13:21;6.70;99.40
21895;DHT22;11112;51.270;7.224;2022-12-08T13:16:16;6.70;99.40
21895;DHT22;11112;51.270;7.224;2022-12-08T13:19:24;6.70;99.40
21895;DHT22;11112;51.270;7.224;2022-12-08T13:29:19;6.70;99.10
21895;DHT22;11112;51.270;7.224;2022-12-08T13:31:49;6.70;99.30
21895;DHT22;11112;51.270;7.224;2022-12-08T13:34:26;6.70;99.30
21895;DHT22;11112;51.270;7.224;2022-12-08T13:37:18;6.70;99.10
21895;DHT22;11112;51.270;7.224;2022-12-08T13:39:51;6.70;99.20
21895;DHT22;11112;51.270;7.224;2022-12-08T13:42:27;6.70;99.30
21895;DHT22;11112;51.270;7.224;2022-12-08T13:45:12;6.80;99.40
21895;DHT22;11112;51.270;7.224;2022-12-08T13:47:46;6.80;99.20
21895;DHT22;11112;51.270;7.224;2022-12-08T13:50:24;6.70;99.10
21895;DHT22;11112;51.270;7.224;2022-12-08T13:52:57;6.70;99.20
21895;DHT22;11112;51.270;7.224;2022-12-08T13:55:28;6.80;99.10
21895;DHT22;11112;51.270;7.224;2022-12-08T13:58:17;6.70;99.10
21895;DHT22;11112;51.270;7.224;2022-12-08T14:00:55;6.70;99.10
21895;DHT22;11112;51.270;7.224;2022-12-08T14:03:27;6.70;99.10
21895;DHT22;11112;51.270;7.224;2022-12-08T14:05:54;6.80;99.10
21895;DHT22;11112;51.270;7.224;2022-12-08T14:08:29;6.80;99.20
21895;DHT22;11112;51.270;7.224;2022-12-08T14:11:02;6.80;99.00
21895;DHT22;11112;51.270;7.224;2022-12-08T14:13:34;6.80;99.10
21895;DHT22;11112;51.270;7.224;2022-12-08T14:16:01;6.80;99.40
21895;DHT22;11112;51.270;7.224;2022-12-08T14:18:30;6.80;99.30
21895;DHT22;11112;51.270;7.224;2022-12-08T14:21:00;6.80;99.20
21895;DHT22;11112;51.270;7.224;2022-12-08T14:23:34;6.80;99.20
21895;DHT22;11112;51.270;7.224;2022-12-08T14:26:03;6.80;99.40
21895;DHT22;11112;51.270;7.224;2022-12-08T14:28:34;6.80;99.40
21895;DHT22;11112;51.270;7.224;2022-12-08T14:31:02;6.80;99.30
21895;DHT22;11112;51.270;7.224;2022-12-08T14:33:31;6.80;99.50
21895;DHT22;11112;51.270;7.224;2022-12-08T14:36:00;6.80;99.40
21895;DHT22;11112;51.270;7.224;2022-12-08T14:38:29;6.80;99.40
21895;DHT22;11112;51.270;7.224;2022-12-08T14:41:02;6.80;99.60
21895;DHT22;11112;51.270;7.224;2022-12-08T14:43:31;6.80;99.40
21895;DHT22;11112;51.270;7.224;2022-12-08T14:46:18;6.90;99.30
21895;DHT22;11112;51.270;7.224;2022-12-08T14:48:46;6.90;99.20
21895;DHT22;11112;51.270;7.224;2022-12-08T14:51:18;6.80;99.20
21895;DHT22;11112;51.270;7.224;2022-12-08T14:53:53;6.90;99.70
21895;DHT22;11112;51.270;7.224;2022-12-08T14:56:27;6.90;99.30
21895;DHT22;11112;51.270;7.224;2022-12-08T14:59:06;6.90;99.10
21895;DHT22;11112;51.270;7.224;2022-12-08T15:01:44;6.80;98.90
21895;DHT22;11112;51.270;7.224;2022-12-08T15:04:16;6.80;99.00
21895;DHT22;11112;51.270;7.224;2022-12-08T15:06:49;6.80;99.10
21895;DHT22;11112;51.270;7.224;2022-12-08T15:09:39;6.80;99.10
21895;DHT22;11112;51.270;7.224;2022-12-08T15:13:04;6.80;99.10
21895;DHT22;11112;51.270;7.224;2022-12-08T15:16:20;6.80;98.80
21895;DHT22;11112;51.270;7.224;2022-12-08T15:19:21;6.80;99.10
21895;DHT22;11112;51.270;7.224;2022-12-08T15:22:49;6.80;98.90
21895;DHT22;11112;51.270;7.224;2022-12-08T15:25:56;6.80;98.90
21895;DHT22;11112;51.270;7.224;2022-12-08T15:28:30;6.80;98.80
21895;DHT22;11112;51.270;7.224;2022-12-08T15:31:19;6.80;98.90
21895;DHT22;11112;51.270;7.224;2022-12-08T15:33:46;6.90;98.90
21895;DHT22;11112;51.270;7.224;2022-12-08T15:36:15;6.80;99.00
21895;DHT22;11112;51.270;7.224;2022-12-08T15:38:42;6.80;98.90
21895;DHT22;11112;51.270;7.224;2022-12-08T15:41:19;6.80;98.90
21895;DHT22;11112;51.270;7.224;2022-12-08T15:43:56;6.80;98.90
21895;DHT22;11112;51.270;7.224;2022-12-08T15:46:34;6.80;98.70
21895;DHT22;11112;51.270;7.224;2022-12-08T15:49:20;6.80;98.70
21895;DHT22;11112;51.270;7.224;2022-12-08T15:51:57;6.80;98.80
21895;DHT22;11112;51.270;7.224;2022-12-08T15:54:24;6.80;98.60
21895;DHT22;11112;51.270;7.224;2022-12-08T15:56:54;6.80;98.30
21895;DHT22;11112;51.270;7.224;2022-12-08T15:59:24;6.80;98.30
21895;DHT22;11112;51.270;7.224;2022-12-08T16:01:51;6.80;98.30
21895;DHT22;11112;51.270;7.224;2022-12-08T16:04:20;6.80;98.50
21895;DHT22;11112;51.270;7.224;2022-12-08T16:06:49;6.80;98.20
21895;DHT22;11112;51.270;7.224;2022-12-08T16:09:24;6.80;98.40
21895;DHT22;11112;51.270;7.224;2022-12-08T16:11:57;6.80;98.30
21895;DHT22;11112;51.270;7.224;2022-12-08T16:14:42;6.80;98.20
21895;DHT22;11112;51.270;7.224;2022-12-08T16:17:12;6.80;98.20
21895;DHT22;11112;51.270;7.224;2022-12-08T16:19:41;6.80;98.20
21895;DHT22;11112;51.270;7.224;2022-12-08T16:22:14;6.80;98.10
21895;DHT22;11112;51.270;7.224;2022-12-08T16:24:44;6.80;98.20
21895;DHT22;11112;51.270;7.224;2022-12-08T16:27:17;6.80;98.20
21895;DHT22;11112;51.270;7.224;2022-12-08T16:29:47;6.80;98.20
21895;DHT22;11112;51.270;7.224;2022-12-08T16:32:15;6.80;98.00
21895;DHT22;11112;51.270;7.224;2022-12-08T16:34:43;6.80;98.10
21895;DHT22;11112;51.270;7.224;2022-12-08T16:37:14;6.80;98.20